METAR Data
IDs: Format: Raw Decoded Include TAF

Data at: 0126 UTC 01 Mar 2021

KTEW 010115Z AUTO 27016G23KT 10SM SCT023 BKN110 07/03 A2971 RMK AO2 T00700031